This is the latest recevied weather packets stored in our database for station/object K6CED. If no packets are shown the sender has not sent any weather packets the latest 10 day(s).
| Time | Temp. | Humidity | Pressure | Rain* | Wind** | Luminosity | Snow |
|---|---|---|---|---|---|---|---|
| 1777663756 | 22.78° C | 58% | 1015.7 hPa | 0 mm | - | 897 W/m² | - |
| 1777663452 | 22.78° C | 59% | 1015.7 hPa | 0 mm | - | 895 W/m² | - |
| 1777663150 | 22.22° C | 60% | 1015.7 hPa | 0 mm | - | 895 W/m² | - |
| 1777662847 | 22.78° C | 59% | 1015.8 hPa | 0 mm | - | 894 W/m² | - |
| 1777662544 | 22.22° C | 61% | 1015.8 hPa | 0 mm | - | 895 W/m² | - |
| 1777662239 | 22.22° C | 61% | 1016 hPa | 0 mm | - | 893 W/m² | - |
| 1777661934 | 21.11° C | 64% | 1016.1 hPa | 0 mm | - | 894 W/m² | - |
| 1777661631 | 21.11° C | 65% | 1016.3 hPa | 0 mm | - | 894 W/m² | - |
| 1777661326 | 21.11° C | 65% | 1016.1 hPa | 0 mm | - | 885 W/m² | - |
| 1777661023 | 20° C | 67% | 1016.5 hPa | 0 mm | - | 883 W/m² | - |
| 1777660718 | 20.56° C | 66% | 1016.2 hPa | 0 mm | - | 877 W/m² | - |
| 1777660416 | 20.56° C | 66% | 1016.5 hPa | 0 mm | - | 873 W/m² | - |
| 1777660112 | 20.56° C | 67% | 1016.4 hPa | 0 mm | - | 867 W/m² | - |
| 1777659809 | 20° C | 68% | 1016.5 hPa | 0 mm | - | 861 W/m² | - |
| 1777659506 | 19.44° C | 71% | 1016.6 hPa | 0 mm | - | 855 W/m² | - |
| 1777659203 | 19.44° C | 70% | 1016.6 hPa | 0 mm | - | 846 W/m² | - |
| 1777658900 | 18.89° C | 70% | 1016.7 hPa | 0 mm | - | 842 W/m² | - |
| 1777658596 | 18.33° C | 74% | 1017 hPa | 0 mm | - | 835 W/m² | - |
| 1777658294 | 18.33° C | 74% | 1017 hPa | 0 mm | - | 824 W/m² | - |
| 1777657990 | 17.78° C | 75% | 1017.1 hPa | 0 mm | - | 819 W/m² | - |
| 1777657687 | 17.78° C | 75% | 1017.1 hPa | 0 mm | - | 809 W/m² | - |
| 1777657384 | 17.78° C | 75% | 1017.3 hPa | 0 mm | - | 800 W/m² | - |
| 1777657082 | 17.22° C | 78% | 1017.1 hPa | 0 mm | - | 791 W/m² | - |
| 1777656779 | 17.22° C | 78% | 1017.2 hPa | 0 mm | - | 778 W/m² | - |
| 1777656474 | 16.67° C | 79% | 1017.1 hPa | 0 mm | - | 764 W/m² | - |
* Rain latest hour (hover to see other rain measurements)
** Current wind speed in m/s (hover to see current wind gust speed)